sensor_id;sensor_type;location;lat;lon;timestamp;temperature;humidity
12839;DHT22;6486;51.034;5.262;2023-06-22T00:00:19;23.10;58.10
12839;DHT22;6486;51.034;5.262;2023-06-22T00:02:46;23.20;58.20
12839;DHT22;6486;51.034;5.262;2023-06-22T00:05:12;23.20;58.10
12839;DHT22;6486;51.034;5.262;2023-06-22T00:07:38;23.10;58.00
12839;DHT22;6486;51.034;5.262;2023-06-22T00:10:03;23.10;58.00
12839;DHT22;6486;51.034;5.262;2023-06-22T00:12:29;23.00;57.90
12839;DHT22;6486;51.034;5.262;2023-06-22T00:14:55;23.00;58.00
12839;DHT22;6486;51.034;5.262;2023-06-22T00:17:21;23.10;58.20
12839;DHT22;6486;51.034;5.262;2023-06-22T00:19:49;23.00;58.30
12839;DHT22;6486;51.034;5.262;2023-06-22T00:22:19;23.00;58.40
12839;DHT22;6486;51.034;5.262;2023-06-22T00:24:54;22.90;58.40
12839;DHT22;6486;51.034;5.262;2023-06-22T00:27:19;22.90;58.50
12839;DHT22;6486;51.034;5.262;2023-06-22T00:29:45;22.80;58.60
12839;DHT22;6486;51.034;5.262;2023-06-22T00:32:10;22.80;58.70
12839;DHT22;6486;51.034;5.262;2023-06-22T00:34:36;22.80;58.90
12839;DHT22;6486;51.034;5.262;2023-06-22T00:37:02;22.70;58.90
12839;DHT22;6486;51.034;5.262;2023-06-22T00:39:27;22.70;59.10
12839;DHT22;6486;51.034;5.262;2023-06-22T00:41:53;22.60;59.10
12839;DHT22;6486;51.034;5.262;2023-06-22T00:44:18;22.60;59.10
12839;DHT22;6486;51.034;5.262;2023-06-22T00:46:44;22.60;59.10
12839;DHT22;6486;51.034;5.262;2023-06-22T00:49:10;22.60;59.70
12839;DHT22;6486;51.034;5.262;2023-06-22T00:51:37;22.60;59.10
12839;DHT22;6486;51.034;5.262;2023-06-22T00:54:04;22.60;59.00
12839;DHT22;6486;51.034;5.262;2023-06-22T00:56:31;22.60;59.10
12839;DHT22;6486;51.034;5.262;2023-06-22T00:58:58;22.60;59.10
12839;DHT22;6486;51.034;5.262;2023-06-22T01:01:24;22.60;59.20
12839;DHT22;6486;51.034;5.262;2023-06-22T01:03:51;22.60;59.20
12839;DHT22;6486;51.034;5.262;2023-06-22T01:06:21;22.60;59.20
12839;DHT22;6486;51.034;5.262;2023-06-22T01:09:06;22.60;59.30
12839;DHT22;6486;51.034;5.262;2023-06-22T01:11:37;22.50;59.20
12839;DHT22;6486;51.034;5.262;2023-06-22T01:14:10;22.50;59.40
12839;DHT22;6486;51.034;5.262;2023-06-22T01:16:41;22.50;59.40
12839;DHT22;6486;51.034;5.262;2023-06-22T01:21:53;22.40;59.50
12839;DHT22;6486;51.034;5.262;2023-06-22T01:24:30;22.40;60.10
12839;DHT22;6486;51.034;5.262;2023-06-22T01:29:51;22.40;59.60
12839;DHT22;6486;51.034;5.262;2023-06-22T01:32:18;22.40;59.70
12839;DHT22;6486;51.034;5.262;2023-06-22T01:34:45;22.30;59.70
12839;DHT22;6486;51.034;5.262;2023-06-22T01:37:11;22.30;59.90
12839;DHT22;6486;51.034;5.262;2023-06-22T01:39:37;22.20;59.90
12839;DHT22;6486;51.034;5.262;2023-06-22T01:42:03;22.20;60.00
12839;DHT22;6486;51.034;5.262;2023-06-22T01:44:30;22.20;60.10
12839;DHT22;6486;51.034;5.262;2023-06-22T01:46:56;22.20;60.20
12839;DHT22;6486;51.034;5.262;2023-06-22T01:49:22;22.20;60.40
12839;DHT22;6486;51.034;5.262;2023-06-22T01:51:48;22.20;60.40
12839;DHT22;6486;51.034;5.262;2023-06-22T01:54:14;22.20;60.50
12839;DHT22;6486;51.034;5.262;2023-06-22T01:56:39;22.20;60.60
12839;DHT22;6486;51.034;5.262;2023-06-22T01:59:21;22.20;60.80
12839;DHT22;6486;51.034;5.262;2023-06-22T02:02:16;22.20;60.90
12839;DHT22;6486;51.034;5.262;2023-06-22T02:04:52;22.10;61.70
12839;DHT22;6486;51.034;5.262;2023-06-22T02:07:22;22.20;61.30
12839;DHT22;6486;51.034;5.262;2023-06-22T02:09:51;22.10;61.30
12839;DHT22;6486;51.034;5.262;2023-06-22T02:12:22;22.10;61.40
12839;DHT22;6486;51.034;5.262;2023-06-22T02:14:48;22.10;61.40
12839;DHT22;6486;51.034;5.262;2023-06-22T02:17:16;22.10;61.20
12839;DHT22;6486;51.034;5.262;2023-06-22T02:19:42;22.10;61.20
12839;DHT22;6486;51.034;5.262;2023-06-22T02:22:07;22.10;61.10
12839;DHT22;6486;51.034;5.262;2023-06-22T02:24:33;22.10;61.20
12839;DHT22;6486;51.034;5.262;2023-06-22T02:27:00;22.00;61.10
12839;DHT22;6486;51.034;5.262;2023-06-22T02:29:26;22.00;61.20
12839;DHT22;6486;51.034;5.262;2023-06-22T02:31:53;22.00;61.40
12839;DHT22;6486;51.034;5.262;2023-06-22T02:34:19;22.00;61.60
12839;DHT22;6486;51.034;5.262;2023-06-22T02:36:48;22.10;61.60
12839;DHT22;6486;51.034;5.262;2023-06-22T02:39:20;22.00;61.50
12839;DHT22;6486;51.034;5.262;2023-06-22T02:41:56;22.00;61.60
12839;DHT22;6486;51.034;5.262;2023-06-22T02:44:22;22.00;61.70
12839;DHT22;6486;51.034;5.262;2023-06-22T02:46:48;22.00;61.70
12839;DHT22;6486;51.034;5.262;2023-06-22T02:49:14;22.00;61.80
12839;DHT22;6486;51.034;5.262;2023-06-22T02:51:45;22.00;61.90
12839;DHT22;6486;51.034;5.262;2023-06-22T02:54:11;22.00;62.00
12839;DHT22;6486;51.034;5.262;2023-06-22T02:56:36;22.00;62.10
12839;DHT22;6486;51.034;5.262;2023-06-22T02:59:02;22.00;62.30
12839;DHT22;6486;51.034;5.262;2023-06-22T03:01:29;22.00;62.50
12839;DHT22;6486;51.034;5.262;2023-06-22T03:03:56;22.00;62.70
12839;DHT22;6486;51.034;5.262;2023-06-22T03:06:22;21.90;62.80
12839;DHT22;6486;51.034;5.262;2023-06-22T03:08:52;21.90;63.10
12839;DHT22;6486;51.034;5.262;2023-06-22T03:11:17;21.90;63.30
12839;DHT22;6486;51.034;5.262;2023-06-22T03:13:43;21.80;63.40
12839;DHT22;6486;51.034;5.262;2023-06-22T03:16:09;21.80;63.60
12839;DHT22;6486;51.034;5.262;2023-06-22T03:18:34;21.80;63.80
12839;DHT22;6486;51.034;5.262;2023-06-22T03:21:00;21.70;63.90
12839;DHT22;6486;51.034;5.262;2023-06-22T03:23:27;21.70;64.00
12839;DHT22;6486;51.034;5.262;2023-06-22T03:25:53;21.70;64.20
12839;DHT22;6486;51.034;5.262;2023-06-22T03:28:21;21.70;64.30
12839;DHT22;6486;51.034;5.262;2023-06-22T03:30:47;21.60;64.30
12839;DHT22;6486;51.034;5.262;2023-06-22T03:33:12;21.70;64.50
12839;DHT22;6486;51.034;5.262;2023-06-22T03:35:38;21.60;64.60
12839;DHT22;6486;51.034;5.262;2023-06-22T03:38:03;21.60;64.60
12839;DHT22;6486;51.034;5.262;2023-06-22T03:40:29;21.60;64.60
12839;DHT22;6486;51.034;5.262;2023-06-22T03:42:55;21.60;64.70
12839;DHT22;6486;51.034;5.262;2023-06-22T03:45:21;21.60;64.70
12839;DHT22;6486;51.034;5.262;2023-06-22T03:47:47;21.60;64.80
12839;DHT22;6486;51.034;5.262;2023-06-22T03:50:12;21.60;64.90
12839;DHT22;6486;51.034;5.262;2023-06-22T03:52:40;21.60;65.10
12839;DHT22;6486;51.034;5.262;2023-06-22T03:55:06;21.60;65.20
12839;DHT22;6486;51.034;5.262;2023-06-22T03:57:32;21.60;65.40
12839;DHT22;6486;51.034;5.262;2023-06-22T03:59:58;21.60;65.50
12839;DHT22;6486;51.034;5.262;2023-06-22T04:02:24;21.60;65.40
12839;DHT22;6486;51.034;5.262;2023-06-22T04:04:50;21.60;65.50
12839;DHT22;6486;51.034;5.262;2023-06-22T04:07:16;21.70;65.50
12839;DHT22;6486;51.034;5.262;2023-06-22T04:09:43;21.70;65.50
12839;DHT22;6486;51.034;5.262;2023-06-22T04:12:09;21.70;66.30
12839;DHT22;6486;51.034;5.262;2023-06-22T04:14:35;21.80;65.70
12839;DHT22;6486;51.034;5.262;2023-06-22T04:17:00;21.80;65.70
12839;DHT22;6486;51.034;5.262;2023-06-22T04:19:26;21.80;65.60
12839;DHT22;6486;51.034;5.262;2023-06-22T04:21:52;21.90;65.60
12839;DHT22;6486;51.034;5.262;2023-06-22T04:24:17;21.90;65.60
12839;DHT22;6486;51.034;5.262;2023-06-22T04:26:43;22.00;65.70
12839;DHT22;6486;51.034;5.262;2023-06-22T04:29:11;22.00;65.80
12839;DHT22;6486;51.034;5.262;2023-06-22T04:31:36;22.00;65.80
12839;DHT22;6486;51.034;5.262;2023-06-22T04:34:04;22.00;65.80
12839;DHT22;6486;51.034;5.262;2023-06-22T04:36:38;22.00;65.90
12839;DHT22;6486;51.034;5.262;2023-06-22T04:39:08;22.00;66.10
12839;DHT22;6486;51.034;5.262;2023-06-22T04:41:35;22.00;66.10
12839;DHT22;6486;51.034;5.262;2023-06-22T04:44:16;22.00;66.20
12839;DHT22;6486;51.034;5.262;2023-06-22T04:46:59;22.10;66.20
12839;DHT22;6486;51.034;5.262;2023-06-22T04:49:34;22.10;66.10
12839;DHT22;6486;51.034;5.262;2023-06-22T04:52:08;22.20;66.10
12839;DHT22;6486;51.034;5.262;2023-06-22T04:54:35;22.20;65.90
12839;DHT22;6486;51.034;5.262;2023-06-22T04:57:02;22.20;65.80
12839;DHT22;6486;51.034;5.262;2023-06-22T04:59:30;22.30;65.80
12839;DHT22;6486;51.034;5.262;2023-06-22T05:01:57;22.30;65.80
12839;DHT22;6486;51.034;5.262;2023-06-22T05:04:24;22.30;65.80
12839;DHT22;6486;51.034;5.262;2023-06-22T05:06:53;22.40;65.90
12839;DHT22;6486;51.034;5.262;2023-06-22T05:09:20;22.40;65.80
12839;DHT22;6486;51.034;5.262;2023-06-22T05:11:47;22.40;65.80
12839;DHT22;6486;51.034;5.262;2023-06-22T05:14:13;22.50;65.80
12839;DHT22;6486;51.034;5.262;2023-06-22T05:16:38;22.50;65.70
12839;DHT22;6486;51.034;5.262;2023-06-22T05:19:04;22.50;65.70
12839;DHT22;6486;51.034;5.262;2023-06-22T05:21:31;22.50;65.70
12839;DHT22;6486;51.034;5.262;2023-06-22T05:23:57;22.60;65.70
12839;DHT22;6486;51.034;5.262;2023-06-22T05:26:26;22.60;65.70
12839;DHT22;6486;51.034;5.262;2023-06-22T05:28:52;22.60;66.30
12839;DHT22;6486;51.034;5.262;2023-06-22T05:31:19;22.60;65.60
12839;DHT22;6486;51.034;5.262;2023-06-22T05:33:49;22.60;65.60
12839;DHT22;6486;51.034;5.262;2023-06-22T05:36:15;22.60;65.60
12839;DHT22;6486;51.034;5.262;2023-06-22T05:38:41;22.60;65.60
12839;DHT22;6486;51.034;5.262;2023-06-22T05:41:07;22.60;65.60
12839;DHT22;6486;51.034;5.262;2023-06-22T05:43:33;22.60;65.70
12839;DHT22;6486;51.034;5.262;2023-06-22T05:46:01;22.50;65.80
12839;DHT22;6486;51.034;5.262;2023-06-22T05:48:27;22.50;66.60
12839;DHT22;6486;51.034;5.262;2023-06-22T05:50:53;22.50;66.10
12839;DHT22;6486;51.034;5.262;2023-06-22T05:53:18;22.50;66.20
12839;DHT22;6486;51.034;5.262;2023-06-22T05:55:44;22.50;66.30
12839;DHT22;6486;51.034;5.262;2023-06-22T05:58:10;22.50;66.40
12839;DHT22;6486;51.034;5.262;2023-06-22T06:00:36;22.50;66.60
12839;DHT22;6486;51.034;5.262;2023-06-22T06:03:02;22.50;66.60
12839;DHT22;6486;51.034;5.262;2023-06-22T06:05:32;22.50;66.60
12839;DHT22;6486;51.034;5.262;2023-06-22T06:07:59;22.50;66.60
12839;DHT22;6486;51.034;5.262;2023-06-22T06:10:25;22.60;66.80
12839;DHT22;6486;51.034;5.262;2023-06-22T06:12:51;22.60;66.90
12839;DHT22;6486;51.034;5.262;2023-06-22T06:15:17;22.60;66.90
12839;DHT22;6486;51.034;5.262;2023-06-22T06:17:51;22.60;66.90
12839;DHT22;6486;51.034;5.262;2023-06-22T06:20:20;22.50;67.60
12839;DHT22;6486;51.034;5.262;2023-06-22T06:22:46;22.60;67.00
12839;DHT22;6486;51.034;5.262;2023-06-22T06:25:12;22.60;67.10
12839;DHT22;6486;51.034;5.262;2023-06-22T06:27:45;22.50;67.10
12839;DHT22;6486;51.034;5.262;2023-06-22T06:30:12;22.50;67.20
12839;DHT22;6486;51.034;5.262;2023-06-22T06:32:38;22.50;67.20
12839;DHT22;6486;51.034;5.262;2023-06-22T06:35:09;22.50;67.20
12839;DHT22;6486;51.034;5.262;2023-06-22T06:37:43;22.60;67.30
12839;DHT22;6486;51.034;5.262;2023-06-22T06:40:11;22.60;67.40
12839;DHT22;6486;51.034;5.262;2023-06-22T06:42:41;22.50;67.30
12839;DHT22;6486;51.034;5.262;2023-06-22T06:45:14;22.60;67.30
12839;DHT22;6486;51.034;5.262;2023-06-22T06:47:40;22.60;67.30
12839;DHT22;6486;51.034;5.262;2023-06-22T06:50:07;22.60;67.20
12839;DHT22;6486;51.034;5.262;2023-06-22T06:52:32;22.60;67.10
12839;DHT22;6486;51.034;5.262;2023-06-22T06:54:59;22.60;67.10
12839;DHT22;6486;51.034;5.262;2023-06-22T06:57:24;22.60;67.60
12839;DHT22;6486;51.034;5.262;2023-06-22T06:59:57;22.70;67.30
12839;DHT22;6486;51.034;5.262;2023-06-22T07:02:23;22.70;67.30
12839;DHT22;6486;51.034;5.262;2023-06-22T07:04:49;22.70;67.80
12839;DHT22;6486;51.034;5.262;2023-06-22T07:07:15;22.80;67.10
12839;DHT22;6486;51.034;5.262;2023-06-22T07:09:40;22.90;67.10
12839;DHT22;6486;51.034;5.262;2023-06-22T07:12:06;22.90;66.90
12839;DHT22;6486;51.034;5.262;2023-06-22T07:14:32;23.00;66.80
12839;DHT22;6486;51.034;5.262;2023-06-22T07:16:58;23.10;66.70
12839;DHT22;6486;51.034;5.262;2023-06-22T07:19:25;23.20;66.70
12839;DHT22;6486;51.034;5.262;2023-06-22T07:21:52;23.20;66.50
12839;DHT22;6486;51.034;5.262;2023-06-22T07:24:19;23.30;66.40
12839;DHT22;6486;51.034;5.262;2023-06-22T07:26:46;23.30;66.30
12839;DHT22;6486;51.034;5.262;2023-06-22T07:29:13;23.40;66.20
12839;DHT22;6486;51.034;5.262;2023-06-22T07:31:39;23.40;66.80
12839;DHT22;6486;51.034;5.262;2023-06-22T07:34:06;23.40;66.70
12839;DHT22;6486;51.034;5.262;2023-06-22T07:36:32;23.40;66.00
12839;DHT22;6486;51.034;5.262;2023-06-22T07:38:58;23.30;66.10
12839;DHT22;6486;51.034;5.262;2023-06-22T07:41:23;23.30;66.10
12839;DHT22;6486;51.034;5.262;2023-06-22T07:43:49;23.20;66.00
12839;DHT22;6486;51.034;5.262;2023-06-22T07:46:15;23.20;66.20
12839;DHT22;6486;51.034;5.262;2023-06-22T07:48:41;23.20;66.20
12839;DHT22;6486;51.034;5.262;2023-06-22T07:51:07;23.10;66.20
12839;DHT22;6486;51.034;5.262;2023-06-22T07:53:33;23.20;66.30
12839;DHT22;6486;51.034;5.262;2023-06-22T07:55:58;23.20;66.30
12839;DHT22;6486;51.034;5.262;2023-06-22T07:58:24;23.20;66.40
12839;DHT22;6486;51.034;5.262;2023-06-22T08:00:49;23.20;66.50
12839;DHT22;6486;51.034;5.262;2023-06-22T08:03:15;23.10;66.50
12839;DHT22;6486;51.034;5.262;2023-06-22T08:05:41;23.10;66.50
12839;DHT22;6486;51.034;5.262;2023-06-22T08:08:07;23.20;66.70
12839;DHT22;6486;51.034;5.262;2023-06-22T08:10:32;23.20;66.70
12839;DHT22;6486;51.034;5.262;2023-06-22T08:12:58;23.20;66.70
12839;DHT22;6486;51.034;5.262;2023-06-22T08:15:25;23.20;66.70
12839;DHT22;6486;51.034;5.262;2023-06-22T08:17:52;23.30;66.70
12839;DHT22;6486;51.034;5.262;2023-06-22T08:20:17;23.30;66.70
12839;DHT22;6486;51.034;5.262;2023-06-22T08:22:44;23.30;66.70
12839;DHT22;6486;51.034;5.262;2023-06-22T08:25:10;23.30;66.70
12839;DHT22;6486;51.034;5.262;2023-06-22T08:27:36;23.30;66.80
12839;DHT22;6486;51.034;5.262;2023-06-22T08:30:02;23.30;66.80
12839;DHT22;6486;51.034;5.262;2023-06-22T08:32:29;23.30;66.80
12839;DHT22;6486;51.034;5.262;2023-06-22T08:34:55;23.40;67.60
12839;DHT22;6486;51.034;5.262;2023-06-22T08:37:21;23.40;67.00
12839;DHT22;6486;51.034;5.262;2023-06-22T08:39:50;23.40;67.10
12839;DHT22;6486;51.034;5.262;2023-06-22T08:42:16;23.40;67.00
12839;DHT22;6486;51.034;5.262;2023-06-22T08:44:41;23.40;67.60
12839;DHT22;6486;51.034;5.262;2023-06-22T08:47:07;23.40;67.10
12839;DHT22;6486;51.034;5.262;2023-06-22T08:49:33;23.40;67.20
12839;DHT22;6486;51.034;5.262;2023-06-22T08:51:58;23.40;67.40
12839;DHT22;6486;51.034;5.262;2023-06-22T08:54:24;23.30;67.30
12839;DHT22;6486;51.034;5.262;2023-06-22T08:56:49;23.30;67.30
12839;DHT22;6486;51.034;5.262;2023-06-22T08:59:15;23.30;67.50
12839;DHT22;6486;51.034;5.262;2023-06-22T09:01:40;23.30;67.40
12839;DHT22;6486;51.034;5.262;2023-06-22T09:04:11;23.30;67.40
12839;DHT22;6486;51.034;5.262;2023-06-22T09:06:37;23.30;67.40
12839;DHT22;6486;51.034;5.262;2023-06-22T09:09:06;23.40;68.20
12839;DHT22;6486;51.034;5.262;2023-06-22T09:11:32;23.40;67.40
12839;DHT22;6486;51.034;5.262;2023-06-22T09:13:57;23.40;67.40
12839;DHT22;6486;51.034;5.262;2023-06-22T09:16:23;23.40;67.40
12839;DHT22;6486;51.034;5.262;2023-06-22T09:18:49;23.50;67.50
12839;DHT22;6486;51.034;5.262;2023-06-22T09:21:14;23.50;67.50
12839;DHT22;6486;51.034;5.262;2023-06-22T09:23:40;23.50;67.60
12839;DHT22;6486;51.034;5.262;2023-06-22T09:26:06;23.50;67.70
12839;DHT22;6486;51.034;5.262;2023-06-22T09:28:32;23.50;67.70
12839;DHT22;6486;51.034;5.262;2023-06-22T09:30:58;23.60;67.80
12839;DHT22;6486;51.034;5.262;2023-06-22T09:33:26;23.60;67.80
12839;DHT22;6486;51.034;5.262;2023-06-22T09:35:51;23.60;67.70
12839;DHT22;6486;51.034;5.262;2023-06-22T09:38:17;23.60;67.70
12839;DHT22;6486;51.034;5.262;2023-06-22T09:40:43;23.60;67.80
12839;DHT22;6486;51.034;5.262;2023-06-22T09:43:09;23.70;67.90
12839;DHT22;6486;51.034;5.262;2023-06-22T09:45:34;23.60;67.90
12839;DHT22;6486;51.034;5.262;2023-06-22T09:48:00;23.60;67.90
12839;DHT22;6486;51.034;5.262;2023-06-22T09:50:26;23.60;67.90
12839;DHT22;6486;51.034;5.262;2023-06-22T09:52:51;23.70;67.90
12839;DHT22;6486;51.034;5.262;2023-06-22T09:55:21;23.70;67.90
12839;DHT22;6486;51.034;5.262;2023-06-22T09:57:46;23.80;68.00
12839;DHT22;6486;51.034;5.262;2023-06-22T10:00:12;23.70;67.80
12839;DHT22;6486;51.034;5.262;2023-06-22T10:02:39;23.70;67.80
12839;DHT22;6486;51.034;5.262;2023-06-22T10:05:05;23.80;68.00
12839;DHT22;6486;51.034;5.262;2023-06-22T10:07:33;23.70;67.90
12839;DHT22;6486;51.034;5.262;2023-06-22T10:09:58;23.80;68.00
12839;DHT22;6486;51.034;5.262;2023-06-22T10:12:25;23.90;67.90
12839;DHT22;6486;51.034;5.262;2023-06-22T10:14:50;23.90;67.80
12839;DHT22;6486;51.034;5.262;2023-06-22T10:17:16;24.00;67.80
12839;DHT22;6486;51.034;5.262;2023-06-22T10:19:41;24.00;67.80
12839;DHT22;6486;51.034;5.262;2023-06-22T10:22:07;24.00;67.80
12839;DHT22;6486;51.034;5.262;2023-06-22T10:24:33;24.10;68.00
12839;DHT22;6486;51.034;5.262;2023-06-22T10:26:58;24.10;68.10
12839;DHT22;6486;51.034;5.262;2023-06-22T10:29:24;24.10;68.20
12839;DHT22;6486;51.034;5.262;2023-06-22T10:31:50;24.10;68.40
12839;DHT22;6486;51.034;5.262;2023-06-22T10:34:15;24.00;68.50
12839;DHT22;6486;51.034;5.262;2023-06-22T10:36:41;24.00;68.70
12839;DHT22;6486;51.034;5.262;2023-06-22T10:39:06;24.00;69.00
12839;DHT22;6486;51.034;5.262;2023-06-22T10:41:32;23.90;69.10
12839;DHT22;6486;51.034;5.262;2023-06-22T10:43:58;23.90;69.30
12839;DHT22;6486;51.034;5.262;2023-06-22T10:46:26;23.80;69.50
12839;DHT22;6486;51.034;5.262;2023-06-22T10:48:53;23.70;69.70
12839;DHT22;6486;51.034;5.262;2023-06-22T10:51:20;23.70;70.20
12839;DHT22;6486;51.034;5.262;2023-06-22T10:53:46;23.60;71.00
12839;DHT22;6486;51.034;5.262;2023-06-22T10:56:12;23.50;70.70
12839;DHT22;6486;51.034;5.262;2023-06-22T10:58:37;23.50;71.20
12839;DHT22;6486;51.034;5.262;2023-06-22T11:01:03;23.40;72.10
12839;DHT22;6486;51.034;5.262;2023-06-22T11:03:28;23.20;73.50
12839;DHT22;6486;51.034;5.262;2023-06-22T11:05:54;23.10;72.90
12839;DHT22;6486;51.034;5.262;2023-06-22T11:08:20;23.00;73.20
12839;DHT22;6486;51.034;5.262;2023-06-22T11:10:45;23.00;73.50
12839;DHT22;6486;51.034;5.262;2023-06-22T11:13:11;23.10;73.70
12839;DHT22;6486;51.034;5.262;2023-06-22T11:15:37;23.10;73.80
12839;DHT22;6486;51.034;5.262;2023-06-22T11:18:03;23.20;74.50
12839;DHT22;6486;51.034;5.262;2023-06-22T11:20:31;23.30;74.20
12839;DHT22;6486;51.034;5.262;2023-06-22T11:22:56;23.30;74.30
12839;DHT22;6486;51.034;5.262;2023-06-22T11:25:22;23.30;74.50
12839;DHT22;6486;51.034;5.262;2023-06-22T11:27:48;23.30;74.70
12839;DHT22;6486;51.034;5.262;2023-06-22T11:30:13;23.30;74.90
12839;DHT22;6486;51.034;5.262;2023-06-22T11:32:39;23.30;75.00
12839;DHT22;6486;51.034;5.262;2023-06-22T11:35:05;23.30;75.10
12839;DHT22;6486;51.034;5.262;2023-06-22T11:37:30;23.30;75.20
12839;DHT22;6486;51.034;5.262;2023-06-22T11:39:56;23.30;75.20
12839;DHT22;6486;51.034;5.262;2023-06-22T11:42:22;23.30;75.40
12839;DHT22;6486;51.034;5.262;2023-06-22T11:44:49;23.30;75.50
12839;DHT22;6486;51.034;5.262;2023-06-22T11:47:15;23.30;76.20
12839;DHT22;6486;51.034;5.262;2023-06-22T11:49:41;23.30;75.60
12839;DHT22;6486;51.034;5.262;2023-06-22T11:52:07;23.30;76.40
12839;DHT22;6486;51.034;5.262;2023-06-22T11:54:32;23.30;76.00
12839;DHT22;6486;51.034;5.262;2023-06-22T11:56:59;23.30;76.10
12839;DHT22;6486;51.034;5.262;2023-06-22T11:59:24;23.20;76.50
12839;DHT22;6486;51.034;5.262;2023-06-22T12:01:50;23.10;76.70
12839;DHT22;6486;51.034;5.262;2023-06-22T12:04:16;23.00;76.70
12839;DHT22;6486;51.034;5.262;2023-06-22T12:06:42;22.90;76.80
12839;DHT22;6486;51.034;5.262;2023-06-22T12:09:09;22.80;76.80
12839;DHT22;6486;51.034;5.262;2023-06-22T12:11:35;22.70;76.90
12839;DHT22;6486;51.034;5.262;2023-06-22T12:14:01;22.60;77.00
12839;DHT22;6486;51.034;5.262;2023-06-22T12:16:28;22.50;77.10
12839;DHT22;6486;51.034;5.262;2023-06-22T12:18:54;22.40;77.30
12839;DHT22;6486;51.034;5.262;2023-06-22T12:21:20;22.30;77.40
12839;DHT22;6486;51.034;5.262;2023-06-22T12:23:45;22.30;77.60
12839;DHT22;6486;51.034;5.262;2023-06-22T12:26:11;22.20;77.70
12839;DHT22;6486;51.034;5.262;2023-06-22T12:28:37;22.20;77.80
12839;DHT22;6486;51.034;5.262;2023-06-22T12:31:02;22.20;77.80
12839;DHT22;6486;51.034;5.262;2023-06-22T12:33:28;22.10;77.80
12839;DHT22;6486;51.034;5.262;2023-06-22T12:35:56;22.10;78.00
12839;DHT22;6486;51.034;5.262;2023-06-22T12:38:21;22.10;78.20
12839;DHT22;6486;51.034;5.262;2023-06-22T12:40:47;22.00;78.40
12839;DHT22;6486;51.034;5.262;2023-06-22T12:43:15;22.00;78.50
12839;DHT22;6486;51.034;5.262;2023-06-22T12:45:40;21.90;78.80
12839;DHT22;6486;51.034;5.262;2023-06-22T12:48:06;21.90;78.90
12839;DHT22;6486;51.034;5.262;2023-06-22T12:50:32;21.90;79.10
12839;DHT22;6486;51.034;5.262;2023-06-22T12:52:57;21.80;79.10
12839;DHT22;6486;51.034;5.262;2023-06-22T12:55:23;21.80;79.10
12839;DHT22;6486;51.034;5.262;2023-06-22T12:57:49;21.80;79.30
12839;DHT22;6486;51.034;5.262;2023-06-22T13:00:15;21.70;79.30
12839;DHT22;6486;51.034;5.262;2023-06-22T13:02:40;21.70;79.50
12839;DHT22;6486;51.034;5.262;2023-06-22T13:05:07;21.70;79.70
12839;DHT22;6486;51.034;5.262;2023-06-22T13:07:33;21.70;79.80
12839;DHT22;6486;51.034;5.262;2023-06-22T13:09:58;21.60;79.80
12839;DHT22;6486;51.034;5.262;2023-06-22T13:12:24;21.60;80.00
12839;DHT22;6486;51.034;5.262;2023-06-22T13:14:49;21.60;80.30
12839;DHT22;6486;51.034;5.262;2023-06-22T13:17:15;21.60;80.50
12839;DHT22;6486;51.034;5.262;2023-06-22T13:19:41;21.50;80.60
12839;DHT22;6486;51.034;5.262;2023-06-22T13:22:34;21.50;80.70
12839;DHT22;6486;51.034;5.262;2023-06-22T13:25:05;21.50;80.80
12839;DHT22;6486;51.034;5.262;2023-06-22T13:27:31;21.50;80.90
12839;DHT22;6486;51.034;5.262;2023-06-22T13:29:57;21.50;81.00
12839;DHT22;6486;51.034;5.262;2023-06-22T13:32:23;21.40;81.10
12839;DHT22;6486;51.034;5.262;2023-06-22T13:34:48;21.40;81.10
12839;DHT22;6486;51.034;5.262;2023-06-22T13:37:14;21.40;81.40
12839;DHT22;6486;51.034;5.262;2023-06-22T13:39:40;21.40;81.50
12839;DHT22;6486;51.034;5.262;2023-06-22T13:42:06;21.30;81.60
12839;DHT22;6486;51.034;5.262;2023-06-22T13:44:32;21.30;81.70
12839;DHT22;6486;51.034;5.262;2023-06-22T13:46:58;21.20;81.90
12839;DHT22;6486;51.034;5.262;2023-06-22T13:49:23;21.20;82.10
12839;DHT22;6486;51.034;5.262;2023-06-22T13:51:49;21.20;82.20
12839;DHT22;6486;51.034;5.262;2023-06-22T13:54:16;21.20;82.30
12839;DHT22;6486;51.034;5.262;2023-06-22T13:56:41;21.10;82.40
12839;DHT22;6486;51.034;5.262;2023-06-22T13:59:07;21.10;82.60
12839;DHT22;6486;51.034;5.262;2023-06-22T14:01:35;21.10;82.70
12839;DHT22;6486;51.034;5.262;2023-06-22T14:04:01;21.00;82.80
12839;DHT22;6486;51.034;5.262;2023-06-22T14:06:29;21.00;82.90
12839;DHT22;6486;51.034;5.262;2023-06-22T14:08:55;21.00;83.10
12839;DHT22;6486;51.034;5.262;2023-06-22T14:11:21;21.00;83.30
12839;DHT22;6486;51.034;5.262;2023-06-22T14:13:47;20.90;83.40
12839;DHT22;6486;51.034;5.262;2023-06-22T14:16:12;20.90;83.40
12839;DHT22;6486;51.034;5.262;2023-06-22T14:18:38;20.90;83.60
12839;DHT22;6486;51.034;5.262;2023-06-22T14:21:04;20.90;83.60
12839;DHT22;6486;51.034;5.262;2023-06-22T14:23:29;20.80;83.70
12839;DHT22;6486;51.034;5.262;2023-06-22T14:25:55;20.80;83.80
12839;DHT22;6486;51.034;5.262;2023-06-22T14:28:21;20.80;84.00
12839;DHT22;6486;51.034;5.262;2023-06-22T14:30:46;20.70;84.10
12839;DHT22;6486;51.034;5.262;2023-06-22T14:33:12;20.60;84.20
12839;DHT22;6486;51.034;5.262;2023-06-22T14:35:38;20.60;84.30
12839;DHT22;6486;51.034;5.262;2023-06-22T14:38:04;20.60;84.30
12839;DHT22;6486;51.034;5.262;2023-06-22T14:40:29;20.60;84.40
12839;DHT22;6486;51.034;5.262;2023-06-22T14:42:55;20.60;84.50
12839;DHT22;6486;51.034;5.262;2023-06-22T14:45:22;20.50;84.40
12839;DHT22;6486;51.034;5.262;2023-06-22T14:47:48;20.50;84.80
12839;DHT22;6486;51.034;5.262;2023-06-22T14:50:14;20.40;84.70
12839;DHT22;6486;51.034;5.262;2023-06-22T14:52:39;20.40;84.80
12839;DHT22;6486;51.034;5.262;2023-06-22T14:55:05;20.40;85.00
12839;DHT22;6486;51.034;5.262;2023-06-22T14:57:31;20.40;85.10
12839;DHT22;6486;51.034;5.262;2023-06-22T14:59:57;20.40;85.70
12839;DHT22;6486;51.034;5.262;2023-06-22T15:02:22;20.40;85.10
12839;DHT22;6486;51.034;5.262;2023-06-22T15:04:48;20.30;85.00
12839;DHT22;6486;51.034;5.262;2023-06-22T15:07:14;20.30;85.20
12839;DHT22;6486;51.034;5.262;2023-06-22T15:09:40;20.30;85.30
12839;DHT22;6486;51.034;5.262;2023-06-22T15:12:08;20.30;85.90
12839;DHT22;6486;51.034;5.262;2023-06-22T15:14:40;20.30;85.30
12839;DHT22;6486;51.034;5.262;2023-06-22T15:17:07;20.20;85.30
12839;DHT22;6486;51.034;5.262;2023-06-22T15:19:36;20.20;85.40
12839;DHT22;6486;51.034;5.262;2023-06-22T15:22:06;20.20;85.60
12839;DHT22;6486;51.034;5.262;2023-06-22T15:24:33;20.20;85.60
12839;DHT22;6486;51.034;5.262;2023-06-22T15:26:58;20.20;85.60
12839;DHT22;6486;51.034;5.262;2023-06-22T15:29:24;20.20;85.80
12839;DHT22;6486;51.034;5.262;2023-06-22T15:31:51;20.20;85.90
12839;DHT22;6486;51.034;5.262;2023-06-22T15:34:17;20.20;85.90
12839;DHT22;6486;51.034;5.262;2023-06-22T15:36:43;20.30;86.10
12839;DHT22;6486;51.034;5.262;2023-06-22T15:39:10;20.20;85.90
12839;DHT22;6486;51.034;5.262;2023-06-22T15:41:35;20.20;85.90
12839;DHT22;6486;51.034;5.262;2023-06-22T15:44:04;20.20;86.10
12839;DHT22;6486;51.034;5.262;2023-06-22T15:46:30;20.30;86.20